createdAt,value
2023-03-29T00:00:33.093Z,0.20
2023-03-29T00:03:04.490Z,0.25
2023-03-29T00:05:35.245Z,0.15
2023-03-29T00:08:04.586Z,0.10
2023-03-29T00:10:34.091Z,0.38
2023-03-29T00:13:02.435Z,0.10
2023-03-29T00:15:31.319Z,0.10
2023-03-29T00:17:58.521Z,0.30
2023-03-29T00:20:25.980Z,0.20
2023-03-29T00:22:53.485Z,0.15
2023-03-29T00:25:22.953Z,0.20
2023-03-29T00:27:50.250Z,0.20
2023-03-29T00:30:17.811Z,0.10
2023-03-29T00:32:48.888Z,0.20
2023-03-29T00:35:17.225Z,0.20
2023-03-29T00:37:47.317Z,0.10
2023-03-29T00:40:15.783Z,0.20
2023-03-29T00:42:46.998Z,0.10
2023-03-29T00:45:26.943Z,0.43
2023-03-29T00:47:57.747Z,0.32
2023-03-29T00:50:31.781Z,0.15
2023-03-29T00:53:07.741Z,0.15
2023-03-29T00:55:43.700Z,0.43
2023-03-29T00:58:16.568Z,0.30
2023-03-29T01:00:52.721Z,0.28
2023-03-29T01:03:26.236Z,0.10
2023-03-29T01:06:00.476Z,0.25
2023-03-29T01:08:35.191Z,0.20
2023-03-29T01:11:10.277Z,0.35
2023-03-29T01:13:46.901Z,0.30
2023-03-29T01:16:17.326Z,0.17
2023-03-29T01:18:47.396Z,0.20
2023-03-29T01:21:38.225Z,0.40
2023-03-29T01:24:13.052Z,0.10
2023-03-29T01:27:06.420Z,0.10
2023-03-29T01:32:26.141Z,0.30
2023-03-29T01:35:01.043Z,0.25
2023-03-29T01:37:39.688Z,0.93
2023-03-29T01:40:08.188Z,0.15
2023-03-29T01:43:05.855Z,0.28
2023-03-29T01:46:11.574Z,0.40
2023-03-29T01:48:49.273Z,0.30
2023-03-29T01:51:21.593Z,0.30
2023-03-29T01:54:14.188Z,0.32
2023-03-29T01:56:44.019Z,0.20
2023-03-29T01:59:15.687Z,0.20
2023-03-29T02:01:49.550Z,0.30
2023-03-29T02:04:22.068Z,0.30
2023-03-29T02:06:54.428Z,0.45
2023-03-29T02:09:23.716Z,0.17
2023-03-29T02:11:52.399Z,0.20
2023-03-29T02:14:20.577Z,0.25
2023-03-29T02:16:47.811Z,0.10
2023-03-29T02:19:15.632Z,0.20
2023-03-29T02:22:04.304Z,0.20
2023-03-29T02:24:33.944Z,0.30
2023-03-29T02:27:01.504Z,0.35
2023-03-29T02:29:28.955Z,0.13
2023-03-29T02:32:10.580Z,0.28
2023-03-29T02:34:43.969Z,0.30
2023-03-29T02:37:18.262Z,0.32
2023-03-29T02:39:48.992Z,0.22
2023-03-29T02:42:20.697Z,0.20
2023-03-29T02:44:51.507Z,0.10
2023-03-29T02:47:29.001Z,0.35
2023-03-29T02:49:56.754Z,0.60
2023-03-29T02:52:28.656Z,0.20
2023-03-29T02:54:57.213Z,0.22
2023-03-29T02:57:27.057Z,0.50
2023-03-29T02:59:57.380Z,0.60
2023-03-29T03:02:26.093Z,0.20
2023-03-29T03:04:53.890Z,0.15
2023-03-29T03:07:21.568Z,0.20
2023-03-29T03:09:49.182Z,0.20
2023-03-29T03:12:16.907Z,0.20
2023-03-29T03:14:46.989Z,0.10
2023-03-29T03:17:14.577Z,0.20
2023-03-29T03:19:42.096Z,0.43
2023-03-29T03:22:10.293Z,0.10
2023-03-29T03:24:38.028Z,0.40
2023-03-29T03:27:06.399Z,0.10
2023-03-29T03:29:33.741Z,0.20
2023-03-29T03:32:01.087Z,0.17
2023-03-29T03:34:28.314Z,0.30
2023-03-29T03:36:56.047Z,0.10
2023-03-29T03:39:23.581Z,0.30
2023-03-29T03:41:51.265Z,0.20
2023-03-29T03:44:19.324Z,0.30
2023-03-29T03:46:46.883Z,0.20
2023-03-29T03:49:14.535Z,0.30
2023-03-29T03:51:47.107Z,0.10
2023-03-29T03:54:22.827Z,0.10
2023-03-29T03:56:50.565Z,0.20
2023-03-29T03:59:18.351Z,0.30
2023-03-29T04:01:45.779Z,0.10
2023-03-29T04:04:15.004Z,0.17
2023-03-29T04:06:43.776Z,0.40
2023-03-29T04:09:11.386Z,0.30
2023-03-29T04:11:41.104Z,0.40
2023-03-29T04:14:08.210Z,0.10
2023-03-29T04:16:36.115Z,0.20
2023-03-29T04:19:06.242Z,0.10
2023-03-29T04:21:34.865Z,0.10
2023-03-29T04:24:05.593Z,0.17
2023-03-29T04:26:32.960Z,0.40
2023-03-29T04:29:00.877Z,0.17
2023-03-29T04:31:28.900Z,0.10
2023-03-29T04:33:59.106Z,0.30
2023-03-29T04:36:27.794Z,0.10
2023-03-29T04:38:54.917Z,0.17
2023-03-29T04:41:22.767Z,0.30
2023-03-29T04:43:50.239Z,0.10
2023-03-29T04:46:17.754Z,0.20
2023-03-29T04:48:45.790Z,0.20
2023-03-29T04:51:17.871Z,0.10
2023-03-29T04:53:45.034Z,0.20
2023-03-29T04:56:12.462Z,0.30
2023-03-29T04:58:39.776Z,0.20
2023-03-29T05:01:07.152Z,0.20
2023-03-29T05:03:34.504Z,0.15
2023-03-29T05:06:07.486Z,0.30
2023-03-29T05:08:39.450Z,0.28
2023-03-29T05:11:11.452Z,0.38
2023-03-29T05:13:42.028Z,0.50
2023-03-29T05:18:38.901Z,0.10
2023-03-29T05:21:09.628Z,0.60
2023-03-29T05:23:37.655Z,0.47
2023-03-29T05:26:05.398Z,0.68
2023-03-29T05:28:34.034Z,0.93
2023-03-29T05:31:04.834Z,0.43
2023-03-29T05:33:32.714Z,0.30
2023-03-29T05:36:06.292Z,0.28
2023-03-29T05:38:34.060Z,0.30
2023-03-29T05:41:01.760Z,0.40
2023-03-29T05:43:29.407Z,0.43
2023-03-29T05:48:38.687Z,0.50
2023-03-29T05:51:09.037Z,0.30
2023-03-29T05:53:39.532Z,0.35
2023-03-29T05:56:08.868Z,0.60
2023-03-29T05:58:36.705Z,0.32
2023-03-29T06:01:05.421Z,0.40
2023-03-29T06:03:36.121Z,0.30
2023-03-29T06:06:04.352Z,0.60
2023-03-29T06:08:33.073Z,0.47
2023-03-29T06:11:04.341Z,0.40
2023-03-29T06:13:37.984Z,0.52
2023-03-29T06:16:09.476Z,0.90
2023-03-29T06:18:38.438Z,0.50
2023-03-29T06:21:09.660Z,0.63
2023-03-29T06:23:43.323Z,0.65
2023-03-29T06:26:10.963Z,0.32
2023-03-29T06:28:38.634Z,0.68
2023-03-29T06:31:16.558Z,0.43
2023-03-29T06:33:46.980Z,0.50
2023-03-29T06:36:17.134Z,0.70
2023-03-29T06:38:46.093Z,0.73
2023-03-29T06:41:13.503Z,0.32
2023-03-29T06:43:44.416Z,0.35
2023-03-29T06:46:14.675Z,0.60
2023-03-29T06:48:58.848Z,0.65
2023-03-29T06:51:28.245Z,0.55
2023-03-29T06:53:56.114Z,0.70
2023-03-29T06:56:24.273Z,0.40
2023-03-29T06:58:55.072Z,0.82
2023-03-29T07:01:23.034Z,0.30
2023-03-29T07:03:50.691Z,0.60
2023-03-29T07:06:20.737Z,0.43
2023-03-29T07:08:51.579Z,0.65
2023-03-29T07:11:20.826Z,0.65
2023-03-29T07:13:49.306Z,0.60
2023-03-29T07:16:17.686Z,0.80
2023-03-29T07:18:51.979Z,0.52
2023-03-29T07:21:20.654Z,0.60
2023-03-29T07:23:50.693Z,0.50
2023-03-29T07:26:28.776Z,0.40
2023-03-29T07:29:01.554Z,0.50
2023-03-29T07:31:30.040Z,0.60
2023-03-29T07:34:06.644Z,0.40
2023-03-29T07:36:35.647Z,0.40
2023-03-29T07:39:03.742Z,0.57
2023-03-29T07:41:31.334Z,0.68
2023-03-29T07:43:59.310Z,0.57
2023-03-29T07:46:28.304Z,0.70
2023-03-29T07:48:57.295Z,0.50
2023-03-29T07:51:25.098Z,0.50
2023-03-29T07:53:55.323Z,0.80
2023-03-29T07:56:23.172Z,0.60
2023-03-29T07:58:51.218Z,0.63
2023-03-29T08:01:20.026Z,0.40
2023-03-29T08:03:48.423Z,0.55
2023-03-29T08:06:17.066Z,0.60
2023-03-29T08:08:44.468Z,0.57
2023-03-29T08:11:11.817Z,0.32
2023-03-29T08:13:39.479Z,0.32
2023-03-29T08:16:08.540Z,0.40
2023-03-29T08:18:36.226Z,0.60
2023-03-29T08:21:03.869Z,0.50
2023-03-29T08:23:31.930Z,0.63
2023-03-29T08:25:59.604Z,0.80
2023-03-29T08:28:30.324Z,0.55
2023-03-29T08:33:39.314Z,0.60
2023-03-29T08:36:10.388Z,0.20
2023-03-29T08:38:38.370Z,0.70
2023-03-29T08:41:43.463Z,0.55
2023-03-29T08:44:20.718Z,0.85
2023-03-29T08:47:27.979Z,0.70
2023-03-29T08:49:59.355Z,0.50
2023-03-29T08:53:02.366Z,0.98
2023-03-29T08:55:42.324Z,0.65
2023-03-29T08:58:19.794Z,0.50
2023-03-29T09:00:57.795Z,0.32
2023-03-29T09:03:31.627Z,0.47
2023-03-29T09:06:08.264Z,0.50
2023-03-29T09:11:29.700Z,0.50
2023-03-29T09:14:21.359Z,0.47
2023-03-29T09:16:59.065Z,0.77
2023-03-29T09:20:14.857Z,0.60
2023-03-29T09:23:04.924Z,0.45
2023-03-29T09:25:53.577Z,0.65
2023-03-29T09:28:38.461Z,0.77
2023-03-29T09:34:14.572Z,0.82
2023-03-29T09:37:11.131Z,0.40
2023-03-29T09:39:40.559Z,0.60
2023-03-29T09:42:09.535Z,0.50
2023-03-29T09:44:47.758Z,0.70
2023-03-29T09:47:41.048Z,0.60
2023-03-29T09:50:30.197Z,0.60
2023-03-29T09:53:01.746Z,0.82
2023-03-29T09:55:32.542Z,0.80
2023-03-29T09:58:16.576Z,0.88
2023-03-29T10:00:48.191Z,0.52
2023-03-29T10:03:27.644Z,0.70
2023-03-29T10:06:01.956Z,0.50
2023-03-29T10:08:42.000Z,0.70
2023-03-29T10:11:25.261Z,0.55
2023-03-29T10:13:57.608Z,0.65
2023-03-29T10:16:30.397Z,1.20
2023-03-29T10:19:24.311Z,0.47
2023-03-29T10:21:55.472Z,0.52
2023-03-29T10:24:26.063Z,0.57
2023-03-29T10:26:57.581Z,0.73
2023-03-29T10:29:28.061Z,0.90
2023-03-29T10:31:55.632Z,0.60
2023-03-29T10:34:26.375Z,0.63
2023-03-29T10:37:02.312Z,0.80
2023-03-29T10:39:34.257Z,1.20
2023-03-29T10:42:04.296Z,0.52
2023-03-29T10:44:34.670Z,0.60
2023-03-29T10:47:20.589Z,0.60
2023-03-29T10:49:57.114Z,0.52
2023-03-29T10:52:25.643Z,0.43
2023-03-29T10:54:59.749Z,0.85
2023-03-29T10:58:13.762Z,0.60
2023-03-29T11:00:54.730Z,0.60
2023-03-29T11:03:35.451Z,0.90
2023-03-29T11:06:21.142Z,0.80
2023-03-29T11:08:54.018Z,1.02
2023-03-29T11:11:41.393Z,0.63
2023-03-29T11:14:33.819Z,1.23
2023-03-29T11:17:22.928Z,0.60
2023-03-29T11:20:18.532Z,0.98
2023-03-29T11:23:12.744Z,0.52
2023-03-29T11:28:53.338Z,0.75
2023-03-29T11:31:40.989Z,0.77
2023-03-29T11:34:30.033Z,0.55
2023-03-29T11:37:24.126Z,0.60
2023-03-29T11:42:26.934Z,0.57
2023-03-29T11:44:58.306Z,0.82
2023-03-29T11:47:31.619Z,0.77
2023-03-29T11:50:06.690Z,0.57
2023-03-29T11:52:38.499Z,0.80
2023-03-29T11:55:12.481Z,0.55
2023-03-29T11:57:54.529Z,0.98
2023-03-29T12:00:31.265Z,0.82
2023-03-29T12:03:22.296Z,0.82
2023-03-29T12:06:19.493Z,0.90
2023-03-29T12:08:50.618Z,0.98
2023-03-29T12:11:35.258Z,0.88
2023-03-29T12:14:09.976Z,1.27
2023-03-29T12:20:17.857Z,0.50
2023-03-29T12:22:51.028Z,1.27
2023-03-29T12:25:25.169Z,0.75
2023-03-29T12:28:10.404Z,1.10
2023-03-29T12:31:16.705Z,1.17
2023-03-29T12:36:52.230Z,0.90
2023-03-29T12:39:21.196Z,0.90
2023-03-29T12:41:55.231Z,0.75
2023-03-29T12:44:28.755Z,0.90
2023-03-29T12:47:00.771Z,0.70
2023-03-29T12:49:30.355Z,0.88
2023-03-29T12:52:00.950Z,1.05
2023-03-29T12:54:32.558Z,0.77
2023-03-29T12:57:02.875Z,0.85
2023-03-29T12:59:47.943Z,2.00
2023-03-29T13:02:18.223Z,0.68
2023-03-29T13:04:55.598Z,1.05
2023-03-29T13:07:24.408Z,0.75
2023-03-29T13:09:57.443Z,0.52
2023-03-29T13:12:42.453Z,0.98
2023-03-29T13:15:18.215Z,1.65
2023-03-29T13:17:51.248Z,0.90
2023-03-29T13:20:39.831Z,1.00
2023-03-29T13:26:53.694Z,1.13
2023-03-29T13:33:32.193Z,0.80
2023-03-29T13:36:05.854Z,1.55
2023-03-29T13:38:46.508Z,0.90
2023-03-29T13:41:38.925Z,1.13
2023-03-29T13:44:34.169Z,0.98
2023-03-29T13:47:08.345Z,0.40
2023-03-29T13:49:39.774Z,0.90
2023-03-29T13:52:33.138Z,1.25
2023-03-29T13:55:10.617Z,0.80
2023-03-29T13:57:51.497Z,0.98
2023-03-29T14:00:28.808Z,1.02
2023-03-29T14:03:02.140Z,1.20
2023-03-29T14:05:39.820Z,0.95
2023-03-29T14:08:13.843Z,1.05
2023-03-29T14:10:44.530Z,1.35
2023-03-29T14:13:18.658Z,1.00
2023-03-29T14:15:54.471Z,1.00
2023-03-29T14:18:27.718Z,0.73
2023-03-29T14:21:09.025Z,1.10
2023-03-29T14:23:41.098Z,0.85
2023-03-29T14:26:20.745Z,1.23
2023-03-29T14:28:49.568Z,0.70
2023-03-29T14:31:26.952Z,1.75
2023-03-29T14:34:00.185Z,1.13
2023-03-29T14:36:38.845Z,0.98
2023-03-29T14:39:22.229Z,1.77
2023-03-29T14:41:59.725Z,0.80
2023-03-29T14:44:34.818Z,0.82
2023-03-29T14:47:03.390Z,0.68
2023-03-29T14:49:32.047Z,0.93
2023-03-29T14:52:00.719Z,1.00
2023-03-29T14:54:32.979Z,1.17
2023-03-29T14:57:06.208Z,1.00
2023-03-29T14:59:43.081Z,0.98
2023-03-29T15:02:30.483Z,1.05
2023-03-29T15:05:03.615Z,0.90
2023-03-29T15:15:11.916Z,0.63
2023-03-29T15:17:51.180Z,1.10
2023-03-29T15:20:27.498Z,0.60
2023-03-29T15:23:00.137Z,1.10
2023-03-29T15:25:38.827Z,0.90
2023-03-29T15:28:06.444Z,0.60
2023-03-29T15:30:45.100Z,1.20
2023-03-29T15:33:24.777Z,0.70
2023-03-29T15:36:05.674Z,0.80
2023-03-29T15:38:43.082Z,0.88
2023-03-29T15:41:14.315Z,1.10
2023-03-29T15:43:43.612Z,0.70
2023-03-29T15:46:16.805Z,1.05
2023-03-29T15:48:50.078Z,0.85
2023-03-29T15:51:20.816Z,1.42
2023-03-29T15:53:57.144Z,0.57
2023-03-29T15:56:24.907Z,0.95
2023-03-29T15:58:52.607Z,0.60
2023-03-29T16:01:50.876Z,1.05
2023-03-29T16:04:25.773Z,1.10
2023-03-29T16:06:57.996Z,0.70
2023-03-29T16:09:34.863Z,0.85
2023-03-29T16:12:27.634Z,1.05
2023-03-29T16:15:00.149Z,1.08
2023-03-29T16:17:39.889Z,1.60
2023-03-29T16:20:09.127Z,1.27
2023-03-29T16:22:39.551Z,1.48
2023-03-29T16:25:18.023Z,0.85
2023-03-29T16:27:52.353Z,0.73
2023-03-29T16:31:01.824Z,1.00
2023-03-29T16:33:29.151Z,1.13
2023-03-29T16:35:56.515Z,1.58
2023-03-29T16:38:29.409Z,1.00
2023-03-29T16:40:57.585Z,1.85
2023-03-29T16:43:25.339Z,0.90
2023-03-29T16:45:53.021Z,0.77
2023-03-29T16:48:24.127Z,0.75
2023-03-29T16:50:51.569Z,1.30
2023-03-29T16:53:21.607Z,0.90
2023-03-29T16:55:49.715Z,0.90
2023-03-29T16:58:24.127Z,0.95
2023-03-29T17:00:54.779Z,1.10
2023-03-29T17:03:22.364Z,0.93
2023-03-29T17:05:52.315Z,1.02
2023-03-29T17:08:24.072Z,1.02
2023-03-29T17:10:55.756Z,1.25
2023-03-29T17:13:24.161Z,1.80
2023-03-29T17:15:53.090Z,1.13
2023-03-29T17:18:23.300Z,1.10
2023-03-29T17:23:24.381Z,1.00
2023-03-29T17:26:02.417Z,0.90
2023-03-29T17:28:36.187Z,1.05
2023-03-29T17:31:07.318Z,1.13
2023-03-29T17:33:40.650Z,0.82
2023-03-29T17:36:11.559Z,0.95
2023-03-29T17:38:40.809Z,1.38
2023-03-29T17:41:08.625Z,0.82
2023-03-29T17:43:36.286Z,1.98
2023-03-29T17:46:07.057Z,2.72
2023-03-29T17:48:35.115Z,1.08
2023-03-29T17:51:07.569Z,1.13
2023-03-29T17:53:36.557Z,0.55
2023-03-29T17:56:04.172Z,1.10
2023-03-29T17:58:46.194Z,1.73
2023-03-29T18:03:48.823Z,1.00
2023-03-29T18:06:19.689Z,1.10
2023-03-29T18:08:47.862Z,1.23
2023-03-29T18:11:22.506Z,1.10
2023-03-29T18:13:53.863Z,1.17
2023-03-29T18:16:22.561Z,1.20
2023-03-29T18:18:51.022Z,0.95
2023-03-29T18:21:18.453Z,1.42
2023-03-29T18:23:47.437Z,1.02
2023-03-29T18:26:16.527Z,1.00
2023-03-29T18:28:47.304Z,1.42
2023-03-29T18:31:20.164Z,1.52
2023-03-29T18:33:48.207Z,1.20
2023-03-29T18:36:17.992Z,1.27
2023-03-29T18:38:46.147Z,0.77
2023-03-29T18:41:14.578Z,1.38
2023-03-29T18:43:46.444Z,1.25
2023-03-29T18:46:13.875Z,1.98
2023-03-29T18:48:42.410Z,0.55
2023-03-29T18:51:11.872Z,1.65
2023-03-29T18:53:41.767Z,1.00
2023-03-29T18:56:09.864Z,0.90
2023-03-29T18:58:37.327Z,1.10
2023-03-29T19:01:06.126Z,1.20
2023-03-29T19:03:35.137Z,1.42
2023-03-29T19:06:02.964Z,0.98
2023-03-29T19:08:30.565Z,0.95
2023-03-29T19:11:04.528Z,1.30
2023-03-29T19:13:31.865Z,1.25
2023-03-29T19:16:02.344Z,1.10
2023-03-29T19:18:30.663Z,1.52
2023-03-29T19:20:59.160Z,1.15
2023-03-29T19:23:28.422Z,1.15
2023-03-29T19:25:58.668Z,1.67
2023-03-29T19:28:29.748Z,0.82
2023-03-29T19:31:00.919Z,1.20
2023-03-29T19:33:29.565Z,1.05
2023-03-29T19:35:57.120Z,1.63
2023-03-29T19:38:26.904Z,1.00
2023-03-29T19:40:54.040Z,2.22
2023-03-29T19:43:27.136Z,1.50
2023-03-29T19:45:54.635Z,1.02
2023-03-29T19:48:23.914Z,1.10
2023-03-29T19:50:55.273Z,1.48
2023-03-29T19:56:05.482Z,1.40
2023-03-29T19:58:32.791Z,1.15
2023-03-29T20:01:00.917Z,1.15
2023-03-29T20:03:28.685Z,1.77
2023-03-29T20:05:56.722Z,1.27
2023-03-29T20:08:25.038Z,0.88
2023-03-29T20:10:59.918Z,1.00
2023-03-29T20:13:37.503Z,1.42
2023-03-29T20:16:15.573Z,1.08
2023-03-29T20:18:45.294Z,1.20
2023-03-29T20:21:14.456Z,1.15
2023-03-29T20:23:41.532Z,1.23
2023-03-29T20:26:09.128Z,0.93
2023-03-29T20:28:41.877Z,1.63
2023-03-29T20:31:20.004Z,1.20
2023-03-29T20:33:47.613Z,1.63
2023-03-29T20:36:18.786Z,1.63
2023-03-29T20:38:46.310Z,0.85
2023-03-29T20:41:14.240Z,1.13
2023-03-29T20:43:41.555Z,1.40
2023-03-29T20:46:14.778Z,1.15
2023-03-29T20:48:54.673Z,2.05
2023-03-29T20:51:30.505Z,1.30
2023-03-29T20:54:04.865Z,1.25
2023-03-29T20:56:40.259Z,0.77
2023-03-29T20:59:10.950Z,0.82
2023-03-29T21:01:42.655Z,1.30
2023-03-29T21:04:11.187Z,1.33
2023-03-29T21:06:42.089Z,1.15
2023-03-29T21:11:37.183Z,2.15
2023-03-29T21:14:05.215Z,1.30
2023-03-29T21:16:32.923Z,1.50
2023-03-29T21:19:00.668Z,1.33
2023-03-29T21:21:29.903Z,1.60
2023-03-29T21:23:57.394Z,1.52
2023-03-29T21:26:27.519Z,1.73
2023-03-29T21:28:54.917Z,1.45
2023-03-29T21:31:25.800Z,1.52
2023-03-29T21:33:56.503Z,1.25
2023-03-29T21:36:24.147Z,0.82
2023-03-29T21:38:52.407Z,1.60
2023-03-29T21:41:20.175Z,1.10
2023-03-29T21:43:47.892Z,1.77
2023-03-29T21:46:15.876Z,1.23
2023-03-29T21:48:43.122Z,1.73
2023-03-29T21:51:10.969Z,1.30
2023-03-29T21:53:38.231Z,1.95
2023-03-29T21:56:05.950Z,1.63
2023-03-29T21:58:33.621Z,1.52
2023-03-29T22:01:04.052Z,1.60
2023-03-29T22:03:32.316Z,1.38
2023-03-29T22:06:03.137Z,2.17
2023-03-29T22:08:31.340Z,1.23
2023-03-29T22:10:58.872Z,1.58
2023-03-29T22:13:28.747Z,1.33
2023-03-29T22:16:00.981Z,2.28
2023-03-29T22:18:43.240Z,1.42
2023-03-29T22:21:18.516Z,0.98
2023-03-29T22:23:50.656Z,1.25
2023-03-29T22:26:20.598Z,1.75
2023-03-29T22:28:48.250Z,1.42
2023-03-29T22:31:17.746Z,1.30
2023-03-29T22:33:45.725Z,1.17
2023-03-29T22:36:23.987Z,1.52
2023-03-29T22:38:51.953Z,1.10
2023-03-29T22:41:21.808Z,1.40
2023-03-29T22:43:54.435Z,1.63
2023-03-29T22:46:25.112Z,1.55
2023-03-29T22:48:52.623Z,1.38
2023-03-29T22:51:28.569Z,2.05
2023-03-29T22:53:55.996Z,1.42
2023-03-29T22:56:23.394Z,1.33
2023-03-29T22:58:50.765Z,1.90
2023-03-29T23:01:17.979Z,1.83
2023-03-29T23:03:45.359Z,1.50
2023-03-29T23:06:12.857Z,1.40
2023-03-29T23:08:43.529Z,1.20
2023-03-29T23:11:11.760Z,1.77
2023-03-29T23:13:49.627Z,2.03
2023-03-29T23:16:23.037Z,1.45
2023-03-29T23:18:53.556Z,1.13
2023-03-29T23:21:20.636Z,1.35
2023-03-29T23:23:48.300Z,1.63
2023-03-29T23:26:16.166Z,1.63
2023-03-29T23:28:43.572Z,1.88
2023-03-29T23:31:13.996Z,1.30
2023-03-29T23:33:42.946Z,1.90
2023-03-29T23:36:18.416Z,1.30
2023-03-29T23:38:47.305Z,1.00
2023-03-29T23:41:15.195Z,1.60
2023-03-29T23:43:44.284Z,1.45
2023-03-29T23:46:16.901Z,1.85
2023-03-29T23:48:49.247Z,1.40
2023-03-29T23:51:19.051Z,1.15
2023-03-29T23:53:46.715Z,1.17
2023-03-29T23:56:14.398Z,1.55
2023-03-29T23:58:41.574Z,1.05
